WXM80 ListenWXM80 Stop

You find our weather info also at:

UK Metoffice

WeatherCloud

Weather Underground

Northeastern Weather Network

AWEKAS

Citizen Weather Observer Program (CWOP)

HAMweather, WeatherForYou, PWS Weather


Weather Underground History page Text

Daily Summary for April 8, 2017 Units:  Both    English   Metric
« Previous Day
Next Day »
Daily Weekly Monthly Yearly Custom
  High: Low: Average:
Temperature: 56.3 °F /  13.5 °C 39.8 °F /  4.3 °C 47.1 °F /  8.4 °C
Dew Point: 33.2 °F /  0.7 °C 27.9 °F /  -2.3 °C 30.4 °F /  -0.9 °C
Humidity: 70 % 36 % 53 %
Wind Speed: 12.7 mph /  20.4 km/h - 6.2 mph /  10 km/h
Wind Gust: 24.2 mph /  38.9 km/h - -
Wind:- - WNW
Pressure: 29.99 in /  1015.5 hPa 29.58 in /  1001.6 hPa -
Precipitation: 0.00 in /  0 mm    
Historical Graphs
 
 
Tabular Data for April 8, 2017
Time Temperature Dew Point Pressure Wind Wind Speed Wind Gust Humidity Rainfall Rate (Hourly)
00:04 41.2 °F /  5.1 °C 31.4 °F /  -0.3 °C 29.59 in /  1001.9 hPa NW 1.0 mph /  1.6 km/h 1.2 mph /  1.9 km/h 68 % 0.00 in /  0 mm
00:09 41.2 °F /  5.1 °C 31.1 °F /  -0.5 °C 29.58 in /  1001.6 hPa SW 8.0 mph /  12.9 km/h 19.6 mph /  31.5 km/h 67 % 0.00 in /  0 mm
00:14 41.2 °F /  5.1 °C 31.1 °F /  -0.5 °C 29.59 in /  1001.9 hPa West 7.9 mph /  12.7 km/h 24.2 mph /  38.9 km/h 67 % 0.00 in /  0 mm
00:19 41.1 °F /  5.1 °C 31.0 °F /  -0.6 °C 29.59 in /  1001.9 hPa NW 9.4 mph /  15.1 km/h 17.3 mph /  27.8 km/h 67 % 0.00 in /  0 mm
00:24 41.1 °F /  5.1 °C 31.3 °F /  -0.4 °C 29.59 in /  1001.9 hPa NNW 9.8 mph /  15.8 km/h 16.1 mph /  25.9 km/h 68 % 0.00 in /  0 mm
00:29 41.1 °F /  5.1 °C 31.3 °F /  -0.4 °C 29.59 in /  1001.9 hPa West 3.4 mph /  5.5 km/h 9.2 mph /  14.8 km/h 68 % 0.00 in /  0 mm
00:34 41.0 °F /  5 °C 31.6 °F /  -0.2 °C 29.60 in /  1002.3 hPa WSW 8.8 mph /  14.2 km/h 14.0 mph /  22.5 km/h 69 % 0.00 in /  0 mm
00:39 40.9 °F /  4.9 °C 31.5 °F /  -0.3 °C 29.60 in /  1002.3 hPa SW 8.4 mph /  13.5 km/h 16.1 mph /  25.9 km/h 69 % 0.00 in /  0 mm
00:44 40.8 °F /  4.9 °C 31.4 °F /  -0.3 °C 29.60 in /  1002.3 hPa West 6.8 mph /  10.9 km/h 10.4 mph /  16.7 km/h 69 % 0.00 in /  0 mm
00:49 40.7 °F /  4.8 °C 31.3 °F /  -0.4 °C 29.60 in /  1002.3 hPa West 6.4 mph /  10.3 km/h 11.5 mph /  18.5 km/h 69 % 0.00 in /  0 mm
00:54 40.6 °F /  4.8 °C 31.2 °F /  -0.4 °C 29.60 in /  1002.3 hPa WSW 6.5 mph /  10.5 km/h 12.0 mph /  19.3 km/h 69 % 0.00 in /  0 mm
00:59 40.5 °F /  4.7 °C 31.1 °F /  -0.5 °C 29.60 in /  1002.3 hPa WSW 6.2 mph /  10 km/h 15.0 mph /  24.1 km/h 69 % 0.00 in /  0 mm
01:04 40.5 °F /  4.7 °C 31.1 °F /  -0.5 °C 29.60 in /  1002.3 hPa West 6.7 mph /  10.8 km/h 11.5 mph /  18.5 km/h 69 % 0.00 in /  0 mm
01:09 40.4 °F /  4.7 °C 31.4 °F /  -0.3 °C 29.61 in /  1002.6 hPa WNW 7.0 mph /  11.3 km/h 10.4 mph /  16.7 km/h 70 % 0.00 in /  0 mm
01:14 40.4 °F /  4.7 °C 31.4 °F /  -0.3 °C 29.60 in /  1002.3 hPa WNW 5.8 mph /  9.3 km/h 11.5 mph /  18.5 km/h 70 % 0.00 in /  0 mm
01:19 40.3 °F /  4.6 °C 31.3 °F /  -0.4 °C 29.61 in /  1002.6 hPa West 4.6 mph /  7.4 km/h 11.5 mph /  18.5 km/h 70 % 0.00 in /  0 mm
01:24 40.2 °F /  4.6 °C 31.2 °F /  -0.4 °C 29.61 in /  1002.6 hPa West 9.7 mph /  15.6 km/h 13.8 mph /  22.2 km/h 70 % 0.00 in /  0 mm
01:29 40.2 °F /  4.6 °C 31.2 °F /  -0.4 °C 29.61 in /  1002.6 hPa WSW 7.4 mph /  11.9 km/h 12.7 mph /  20.4 km/h 70 % 0.00 in /  0 mm
01:34 40.2 °F /  4.6 °C 30.8 °F /  -0.7 °C 29.62 in /  1002.9 hPa WNW 6.2 mph /  10 km/h 12.7 mph /  20.4 km/h 69 % 0.00 in /  0 mm
01:39 40.2 °F /  4.6 °C 30.8 °F /  -0.7 °C 29.61 in /  1002.6 hPa WSW 8.0 mph /  12.9 km/h 16.1 mph /  25.9 km/h 69 % 0.00 in /  0 mm
01:44 40.3 °F /  4.6 °C 30.9 °F /  -0.6 °C 29.62 in /  1002.9 hPa WSW 7.4 mph /  11.9 km/h 17.3 mph /  27.8 km/h 69 % 0.00 in /  0 mm
01:49 40.3 °F /  4.6 °C 30.9 °F /  -0.6 °C 29.62 in /  1002.9 hPa WSW 7.8 mph /  12.6 km/h 12.7 mph /  20.4 km/h 69 % 0.00 in /  0 mm
01:54 40.4 °F /  4.7 °C 31.0 °F /  -0.6 °C 29.62 in /  1002.9 hPa West 9.3 mph /  15 km/h 15.0 mph /  24.1 km/h 69 % 0.00 in /  0 mm
01:59 40.4 °F /  4.7 °C 31.0 °F /  -0.6 °C 29.62 in /  1002.9 hPa West 9.0 mph /  14.5 km/h 13.8 mph /  22.2 km/h 69 % 0.00 in /  0 mm
02:04 40.5 °F /  4.7 °C 31.1 °F /  -0.5 °C 29.61 in /  1002.6 hPa SW 7.0 mph /  11.3 km/h 11.5 mph /  18.5 km/h 69 % 0.00 in /  0 mm
02:09 40.5 °F /  4.7 °C 31.1 °F /  -0.5 °C 29.62 in /  1002.9 hPa WSW 7.9 mph /  12.7 km/h 13.8 mph /  22.2 km/h 69 % 0.00 in /  0 mm
02:14 40.5 °F /  4.7 °C 31.5 °F /  -0.3 °C 29.62 in /  1002.9 hPa West 8.8 mph /  14.2 km/h 19.6 mph /  31.5 km/h 70 % 0.00 in /  0 mm
02:19 40.5 °F /  4.7 °C 31.5 °F /  -0.3 °C 29.62 in /  1002.9 hPa WSW 11.4 mph /  18.3 km/h 18.4 mph /  29.6 km/h 70 % 0.00 in /  0 mm
02:24 40.6 °F /  4.8 °C 31.2 °F /  -0.4 °C 29.62 in /  1002.9 hPa WNW 8.3 mph /  13.4 km/h 13.8 mph /  22.2 km/h 69 % 0.00 in /  0 mm
02:30 40.6 °F /  4.8 °C 31.2 °F /  -0.4 °C 29.62 in /  1002.9 hPa WSW 10.3 mph /  16.6 km/h 19.6 mph /  31.5 km/h 69 % 0.00 in /  0 mm
02:35 40.6 °F /  4.8 °C 31.2 °F /  -0.4 °C 29.62 in /  1002.9 hPa WNW 12.7 mph /  20.4 km/h 19.6 mph /  31.5 km/h 69 % 0.00 in /  0 mm
02:40 40.6 °F /  4.8 °C 31.2 °F /  -0.4 °C 29.62 in /  1002.9 hPa West 8.1 mph /  13 km/h 11.5 mph /  18.5 km/h 69 % 0.00 in /  0 mm
02:45 40.6 °F /  4.8 °C 31.6 °F /  -0.2 °C 29.62 in /  1002.9 hPa NW 10.5 mph /  16.9 km/h 12.7 mph /  20.4 km/h 70 % 0.00 in /  0 mm
02:50 40.6 °F /  4.8 °C 31.6 °F /  -0.2 °C 29.62 in /  1002.9 hPa SW 8.8 mph /  14.2 km/h 18.0 mph /  29 km/h 70 % 0.00 in /  0 mm
02:55 40.5 °F /  4.7 °C 31.5 °F /  -0.3 °C 29.62 in /  1002.9 hPa WSW 10.0 mph /  16.1 km/h 18.0 mph /  29 km/h 70 % 0.00 in /  0 mm
03:00 40.5 °F /  4.7 °C 31.1 °F /  -0.5 °C 29.62 in /  1002.9 hPa West 8.1 mph /  13 km/h 15.0 mph /  24.1 km/h 69 % 0.00 in /  0 mm
03:05 40.5 °F /  4.7 °C 31.1 °F /  -0.5 °C 29.62 in /  1002.9 hPa WSW 9.6 mph /  15.4 km/h 19.6 mph /  31.5 km/h 69 % 0.00 in /  0 mm
03:10 40.4 °F /  4.7 °C 31.4 °F /  -0.3 °C 29.62 in /  1002.9 hPa West 5.8 mph /  9.3 km/h 13.8 mph /  22.2 km/h 70 % 0.00 in /  0 mm
03:12 40.4 °F /  4.7 °C 31.4 °F /  -0.3 °C 29.62 in /  1002.9 hPa West 7.3 mph /  11.7 km/h 11.5 mph /  18.5 km/h 70 % 0.00 in /  0 mm
03:17 40.4 °F /  4.7 °C 31.4 °F /  -0.3 °C 29.62 in /  1002.9 hPa NW 4.1 mph /  6.6 km/h 9.2 mph /  14.8 km/h 70 % 0.00 in /  0 mm
03:22 40.4 °F /  4.7 °C 31.4 °F /  -0.3 °C 29.62 in /  1002.9 hPa WNW 5.2 mph /  8.4 km/h 11.5 mph /  18.5 km/h 70 % 0.00 in /  0 mm
03:28 40.4 °F /  4.7 °C 31.4 °F /  -0.3 °C 29.62 in /  1002.9 hPa WNW 8.5 mph /  13.7 km/h 15.0 mph /  24.1 km/h 70 % 0.00 in /  0 mm
03:33 40.4 °F /  4.7 °C 31.4 °F /  -0.3 °C 29.63 in /  1003.3 hPa SW 8.5 mph /  13.7 km/h 15.0 mph /  24.1 km/h 70 % 0.00 in /  0 mm
03:38 40.5 °F /  4.7 °C 31.5 °F /  -0.3 °C 29.63 in /  1003.3 hPa WNW 9.7 mph /  15.6 km/h 15.0 mph /  24.1 km/h 70 % 0.00 in /  0 mm
03:43 40.5 °F /  4.7 °C 31.1 °F /  -0.5 °C 29.63 in /  1003.3 hPa West 9.7 mph /  15.6 km/h 17.3 mph /  27.8 km/h 69 % 0.00 in /  0 mm
03:48 40.4 °F /  4.7 °C 31.0 °F /  -0.6 °C 29.63 in /  1003.3 hPa WSW 5.0 mph /  8 km/h 9.2 mph /  14.8 km/h 69 % 0.00 in /  0 mm
03:53 40.4 °F /  4.7 °C 31.0 °F /  -0.6 °C 29.63 in /  1003.3 hPa WSW 9.1 mph /  14.6 km/h 12.7 mph /  20.4 km/h 69 % 0.00 in /  0 mm
03:58 40.3 °F /  4.6 °C 30.6 °F /  -0.8 °C 29.63 in /  1003.3 hPa WSW 7.1 mph /  11.4 km/h 10.4 mph /  16.7 km/h 68 % 0.00 in /  0 mm
04:03 40.3 °F /  4.6 °C 30.6 °F /  -0.8 °C 29.64 in /  1003.6 hPa West 7.2 mph /  11.6 km/h 16.1 mph /  25.9 km/h 68 % 0.00 in /  0 mm
04:08 40.2 °F /  4.6 °C 30.5 °F /  -0.8 °C 29.64 in /  1003.6 hPa SW 7.3 mph /  11.7 km/h 11.5 mph /  18.5 km/h 68 % 0.00 in /  0 mm
04:13 40.2 °F /  4.6 °C 30.5 °F /  -0.8 °C 29.64 in /  1003.6 hPa SW 8.9 mph /  14.3 km/h 16.1 mph /  25.9 km/h 68 % 0.00 in /  0 mm
04:18 40.2 °F /  4.6 °C 30.5 °F /  -0.8 °C 29.64 in /  1003.6 hPa SW 8.8 mph /  14.2 km/h 13.8 mph /  22.2 km/h 68 % 0.00 in /  0 mm
04:23 40.2 °F /  4.6 °C 30.5 °F /  -0.8 °C 29.64 in /  1003.6 hPa West 8.5 mph /  13.7 km/h 13.8 mph /  22.2 km/h 68 % 0.00 in /  0 mm
04:28 40.3 °F /  4.6 °C 30.6 °F /  -0.8 °C 29.64 in /  1003.6 hPa West 6.8 mph /  10.9 km/h 13.8 mph /  22.2 km/h 68 % 0.00 in /  0 mm
04:33 40.3 °F /  4.6 °C 30.6 °F /  -0.8 °C 29.64 in /  1003.6 hPa WSW 4.1 mph /  6.6 km/h 15.0 mph /  24.1 km/h 68 % 0.00 in /  0 mm
04:38 40.4 °F /  4.7 °C 29.9 °F /  -1.2 °C 29.65 in /  1003.9 hPa WNW 5.2 mph /  8.4 km/h 9.2 mph /  14.8 km/h 66 % 0.00 in /  0 mm
04:43 40.4 °F /  4.7 °C 29.9 °F /  -1.2 °C 29.65 in /  1003.9 hPa West 4.5 mph /  7.2 km/h 10.4 mph /  16.7 km/h 66 % 0.00 in /  0 mm
04:48 40.3 °F /  4.6 °C 29.5 °F /  -1.4 °C 29.65 in /  1003.9 hPa WSW 9.7 mph /  15.6 km/h 18.4 mph /  29.6 km/h 65 % 0.00 in /  0 mm
04:53 40.3 °F /  4.6 °C 29.5 °F /  -1.4 °C 29.65 in /  1003.9 hPa WNW 6.7 mph /  10.8 km/h 12.7 mph /  20.4 km/h 65 % 0.00 in /  0 mm
04:58 40.2 °F /  4.6 °C 29.4 °F /  -1.4 °C 29.65 in /  1003.9 hPa South 8.3 mph /  13.4 km/h 13.8 mph /  22.2 km/h 65 % 0.00 in /  0 mm
05:03 40.2 °F /  4.6 °C 29.0 °F /  -1.7 °C 29.66 in /  1004.3 hPa West 6.2 mph /  10 km/h 13.8 mph /  22.2 km/h 64 % 0.00 in /  0 mm
05:08 40.2 °F /  4.6 °C 29.4 °F /  -1.4 °C 29.66 in /  1004.3 hPa NW 4.7 mph /  7.6 km/h 9.2 mph /  14.8 km/h 65 % 0.00 in /  0 mm
05:13 40.1 °F /  4.5 °C 29.6 °F /  -1.3 °C 29.66 in /  1004.3 hPa WNW 2.6 mph /  4.2 km/h 9.2 mph /  14.8 km/h 66 % 0.00 in /  0 mm
05:18 40.0 °F /  4.4 °C 29.2 °F /  -1.6 °C 29.66 in /  1004.3 hPa WSW 3.0 mph /  4.8 km/h 8.1 mph /  13 km/h 65 % 0.00 in /  0 mm
05:23 40.0 °F /  4.4 °C 29.2 °F /  -1.6 °C 29.66 in /  1004.3 hPa WNW 5.6 mph /  9 km/h 9.2 mph /  14.8 km/h 65 % 0.00 in /  0 mm
05:28 40.0 °F /  4.4 °C 29.2 °F /  -1.6 °C 29.66 in /  1004.3 hPa West 2.3 mph /  3.7 km/h 10.4 mph /  16.7 km/h 65 % 0.00 in /  0 mm
05:33 40.0 °F /  4.4 °C 28.8 °F /  -1.8 °C 29.66 in /  1004.3 hPa NW 5.9 mph /  9.5 km/h 15.0 mph /  24.1 km/h 64 % 0.00 in /  0 mm
05:38 40.0 °F /  4.4 °C 28.8 °F /  -1.8 °C 29.66 in /  1004.3 hPa WSW 9.8 mph /  15.8 km/h 14.0 mph /  22.5 km/h 64 % 0.00 in /  0 mm
05:43 40.0 °F /  4.4 °C 29.2 °F /  -1.6 °C 29.66 in /  1004.3 hPa NW 8.4 mph /  13.5 km/h 8.4 mph /  13.5 km/h 65 % 0.00 in /  0 mm
05:48 40.0 °F /  4.4 °C 29.2 °F /  -1.6 °C 29.67 in /  1004.6 hPa West 6.5 mph /  10.5 km/h 13.8 mph /  22.2 km/h 65 % 0.00 in /  0 mm
05:53 39.9 °F /  4.4 °C 29.1 °F /  -1.6 °C 29.67 in /  1004.6 hPa West 6.5 mph /  10.5 km/h 9.2 mph /  14.8 km/h 65 % 0.00 in /  0 mm
05:58 39.9 °F /  4.4 °C 28.7 °F /  -1.8 °C 29.67 in /  1004.6 hPa West 5.9 mph /  9.5 km/h 15.0 mph /  24.1 km/h 64 % 0.00 in /  0 mm
06:03 39.9 °F /  4.4 °C 28.3 °F /  -2.1 °C 29.67 in /  1004.6 hPa WNW 6.3 mph /  10.1 km/h 13.8 mph /  22.2 km/h 63 % 0.00 in /  0 mm
06:08 39.9 °F /  4.4 °C 28.7 °F /  -1.8 °C 29.67 in /  1004.6 hPa WNW 6.1 mph /  9.8 km/h 9.2 mph /  14.8 km/h 64 % 0.00 in /  0 mm
06:13 39.9 °F /  4.4 °C 28.7 °F /  -1.8 °C 29.67 in /  1004.6 hPa NW 7.2 mph /  11.6 km/h 13.0 mph /  20.9 km/h 64 % 0.00 in /  0 mm
06:18 39.8 °F /  4.3 °C 28.6 °F /  -1.9 °C 29.68 in /  1005 hPa WNW 5.8 mph /  9.3 km/h 8.1 mph /  13 km/h 64 % 0.00 in /  0 mm
06:23 39.8 °F /  4.3 °C 28.6 °F /  -1.9 °C 29.68 in /  1005 hPa NW 7.7 mph /  12.4 km/h 11.0 mph /  17.7 km/h 64 % 0.00 in /  0 mm
06:28 39.8 °F /  4.3 °C 28.6 °F /  -1.9 °C 29.68 in /  1005 hPa NW 4.4 mph /  7.1 km/h 9.2 mph /  14.8 km/h 64 % 0.00 in /  0 mm
06:33 39.8 °F /  4.3 °C 28.6 °F /  -1.9 °C 29.68 in /  1005 hPa WNW 3.9 mph /  6.3 km/h 11.5 mph /  18.5 km/h 64 % 0.00 in /  0 mm
06:38 39.8 °F /  4.3 °C 28.6 °F /  -1.9 °C 29.68 in /  1005 hPa NW 6.7 mph /  10.8 km/h 12.7 mph /  20.4 km/h 64 % 0.00 in /  0 mm
06:41 39.8 °F /  4.3 °C 28.6 °F /  -1.9 °C 29.69 in /  1005.3 hPa West 6.1 mph /  9.8 km/h 9.2 mph /  14.8 km/h 64 % 0.00 in /  0 mm
06:46 39.8 °F /  4.3 °C 28.6 °F /  -1.9 °C 29.69 in /  1005.3 hPa WNW 5.8 mph /  9.3 km/h 9.2 mph /  14.8 km/h 64 % 0.00 in /  0 mm
06:51 40.0 °F /  4.4 °C 28.8 °F /  -1.8 °C 29.69 in /  1005.3 hPa West 8.7 mph /  14 km/h 13.8 mph /  22.2 km/h 64 % 0.00 in /  0 mm
06:56 40.1 °F /  4.5 °C 28.9 °F /  -1.7 °C 29.70 in /  1005.6 hPa NW 1.7 mph /  2.7 km/h 10.4 mph /  16.7 km/h 64 % 0.00 in /  0 mm
07:01 40.2 °F /  4.6 °C 28.2 °F /  -2.1 °C 29.70 in /  1005.6 hPa WNW 6.2 mph /  10 km/h 13.0 mph /  20.9 km/h 62 % 0.00 in /  0 mm
07:06 40.3 °F /  4.6 °C 27.9 °F /  -2.3 °C 29.70 in /  1005.6 hPa WNW 5.0 mph /  8 km/h 5.0 mph /  8 km/h 61 % 0.00 in /  0 mm
07:07 40.4 °F /  4.7 °C 28.4 °F /  -2 °C 29.70 in /  1005.6 hPa WNW 5.0 mph /  8 km/h 5.0 mph /  8 km/h 62 % 0.00 in /  0 mm
07:12 40.5 °F /  4.7 °C 28.9 °F /  -1.7 °C 29.71 in /  1006 hPa WNW 5.4 mph /  8.7 km/h 11.5 mph /  18.5 km/h 63 % 0.00 in /  0 mm
07:17 40.6 °F /  4.8 °C 28.6 °F /  -1.9 °C 29.71 in /  1006 hPa WNW 6.6 mph /  10.6 km/h 11.5 mph /  18.5 km/h 62 % 0.00 in /  0 mm
07:22 40.7 °F /  4.8 °C 28.7 °F /  -1.8 °C 29.71 in /  1006 hPa WNW 6.0 mph /  9.7 km/h 14.0 mph /  22.5 km/h 62 % 0.00 in /  0 mm
07:27 40.8 °F /  4.9 °C 28.8 °F /  -1.8 °C 29.71 in /  1006 hPa WNW 5.0 mph /  8 km/h 12.0 mph /  19.3 km/h 62 % 0.00 in /  0 mm
07:32 40.9 °F /  4.9 °C 28.9 °F /  -1.7 °C 29.71 in /  1006 hPa WNW 6.0 mph /  9.7 km/h 15.0 mph /  24.1 km/h 62 % 0.00 in /  0 mm
07:37 41.0 °F /  5 °C 29.0 °F /  -1.7 °C 29.71 in /  1006 hPa WNW 8.0 mph /  12.9 km/h 16.0 mph /  25.7 km/h 62 % 0.00 in /  0 mm
07:42 41.1 °F /  5.1 °C 29.5 °F /  -1.4 °C 29.71 in /  1006 hPa West 6.0 mph /  9.7 km/h 14.0 mph /  22.5 km/h 63 % 0.00 in /  0 mm
07:47 41.3 °F /  5.2 °C 29.6 °F /  -1.3 °C 29.72 in /  1006.3 hPa West 6.0 mph /  9.7 km/h 12.0 mph /  19.3 km/h 63 % 0.00 in /  0 mm
07:52 41.4 °F /  5.2 °C 29.3 °F /  -1.5 °C 29.72 in /  1006.3 hPa WNW 7.0 mph /  11.3 km/h 15.0 mph /  24.1 km/h 62 % 0.00 in /  0 mm
07:57 41.6 °F /  5.3 °C 29.1 °F /  -1.6 °C 29.72 in /  1006.3 hPa West 7.5 mph /  12.1 km/h 13.8 mph /  22.2 km/h 61 % 0.00 in /  0 mm
08:02 41.9 °F /  5.5 °C 29.4 °F /  -1.4 °C 29.72 in /  1006.3 hPa WSW 8.2 mph /  13.2 km/h 16.1 mph /  25.9 km/h 61 % 0.00 in /  0 mm
08:07 42.2 °F /  5.7 °C 28.9 °F /  -1.7 °C 29.73 in /  1006.7 hPa WNW 9.0 mph /  14.5 km/h 17.3 mph /  27.8 km/h 59 % 0.00 in /  0 mm
08:12 42.5 °F /  5.8 °C 29.2 °F /  -1.6 °C 29.73 in /  1006.7 hPa NW 7.3 mph /  11.7 km/h 10.4 mph /  16.7 km/h 59 % 0.00 in /  0 mm
08:17 42.8 °F /  6 °C 29.5 °F /  -1.4 °C 29.73 in /  1006.7 hPa West 6.0 mph /  9.7 km/h 9.2 mph /  14.8 km/h 59 % 0.00 in /  0 mm
08:22 43.0 °F /  6.1 °C 29.2 °F /  -1.6 °C 29.73 in /  1006.7 hPa WNW 7.7 mph /  12.4 km/h 11.5 mph /  18.5 km/h 58 % 0.00 in /  0 mm
08:27 43.2 °F /  6.2 °C 29.4 °F /  -1.4 °C 29.72 in /  1006.3 hPa West 7.0 mph /  11.3 km/h 15.0 mph /  24.1 km/h 58 % 0.00 in /  0 mm
08:32 43.4 °F /  6.3 °C 29.2 °F /  -1.6 °C 29.73 in /  1006.7 hPa SW 7.0 mph /  11.3 km/h 9.2 mph /  14.8 km/h 57 % 0.00 in /  0 mm
08:37 43.6 °F /  6.4 °C 29.4 °F /  -1.4 °C 29.73 in /  1006.7 hPa WNW 11.6 mph /  18.7 km/h 15.0 mph /  24.1 km/h 57 % 0.00 in /  0 mm
08:42 43.6 °F /  6.4 °C 28.9 °F /  -1.7 °C 29.72 in /  1006.3 hPa West 5.0 mph /  8 km/h 18.0 mph /  29 km/h 56 % 0.00 in /  0 mm
08:47 43.7 °F /  6.5 °C 29.0 °F /  -1.7 °C 29.72 in /  1006.3 hPa WNW 12.0 mph /  19.3 km/h 20.0 mph /  32.2 km/h 56 % 0.00 in /  0 mm
08:52 43.8 °F /  6.6 °C 29.5 °F /  -1.4 °C 29.72 in /  1006.3 hPa WSW 9.5 mph /  15.3 km/h 13.0 mph /  20.9 km/h 57 % 0.00 in /  0 mm
08:57 44.0 °F /  6.7 °C 29.3 °F /  -1.5 °C 29.73 in /  1006.7 hPa West 10.9 mph /  17.5 km/h 17.0 mph /  27.4 km/h 56 % 0.00 in /  0 mm
08:58 44.0 °F /  6.7 °C 29.3 °F /  -1.5 °C 29.73 in /  1006.7 hPa WNW 8.7 mph /  14 km/h 19.6 mph /  31.5 km/h 56 % 0.00 in /  0 mm
09:03 44.0 °F /  6.7 °C 28.9 °F /  -1.7 °C 29.73 in /  1006.7 hPa WSW 10.5 mph /  16.9 km/h 16.1 mph /  25.9 km/h 55 % 0.00 in /  0 mm
09:08 44.2 °F /  6.8 °C 29.0 °F /  -1.7 °C 29.73 in /  1006.7 hPa WNW 7.4 mph /  11.9 km/h 15.0 mph /  24.1 km/h 55 % 0.00 in /  0 mm
09:13 44.3 °F /  6.8 °C 29.1 °F /  -1.6 °C 29.73 in /  1006.7 hPa West 8.3 mph /  13.4 km/h 12.7 mph /  20.4 km/h 55 % 0.00 in /  0 mm
09:18 44.6 °F /  7 °C 29.4 °F /  -1.4 °C 29.73 in /  1006.7 hPa WSW 7.0 mph /  11.3 km/h 12.7 mph /  20.4 km/h 55 % 0.00 in /  0 mm
09:23 44.6 °F /  7 °C 29.0 °F /  -1.7 °C 29.74 in /  1007 hPa WSW 7.6 mph /  12.2 km/h 19.6 mph /  31.5 km/h 54 % 0.00 in /  0 mm
09:28 44.8 °F /  7.1 °C 29.6 °F /  -1.3 °C 29.74 in /  1007 hPa West 10.4 mph /  16.7 km/h 18.4 mph /  29.6 km/h 55 % 0.00 in /  0 mm
09:33 44.9 °F /  7.2 °C 29.2 °F /  -1.6 °C 29.74 in /  1007 hPa WSW 6.7 mph /  10.8 km/h 16.1 mph /  25.9 km/h 54 % 0.00 in /  0 mm
09:38 45.1 °F /  7.3 °C 29.9 °F /  -1.2 °C 29.75 in /  1007.3 hPa WNW 4.0 mph /  6.4 km/h 13.8 mph /  22.2 km/h 55 % 0.00 in /  0 mm
09:43 45.5 °F /  7.5 °C 29.8 °F /  -1.2 °C 29.74 in /  1007 hPa NW 5.6 mph /  9 km/h 9.0 mph /  14.5 km/h 54 % 0.00 in /  0 mm
09:48 45.7 °F /  7.6 °C 29.5 °F /  -1.4 °C 29.75 in /  1007.3 hPa West 8.1 mph /  13 km/h 17.3 mph /  27.8 km/h 53 % 0.00 in /  0 mm
09:53 45.8 °F /  7.7 °C 29.6 °F /  -1.3 °C 29.75 in /  1007.3 hPa NW 9.6 mph /  15.4 km/h 17.3 mph /  27.8 km/h 53 % 0.00 in /  0 mm
09:58 45.9 °F /  7.7 °C 29.7 °F /  -1.3 °C 29.75 in /  1007.3 hPa WSW 9.4 mph /  15.1 km/h 13.8 mph /  22.2 km/h 53 % 0.00 in /  0 mm
10:03 46.2 °F /  7.9 °C 30.5 °F /  -0.8 °C 29.76 in /  1007.7 hPa WSW 7.5 mph /  12.1 km/h 12.7 mph /  20.4 km/h 54 % 0.00 in /  0 mm
10:08 46.5 °F /  8.1 °C 30.3 °F /  -0.9 °C 29.76 in /  1007.7 hPa WNW 7.1 mph /  11.4 km/h 11.5 mph /  18.5 km/h 53 % 0.00 in /  0 mm
10:13 46.7 °F /  8.2 °C 30.0 °F /  -1.1 °C 29.76 in /  1007.7 hPa West 5.9 mph /  9.5 km/h 17.3 mph /  27.8 km/h 52 % 0.00 in /  0 mm
10:18 46.8 °F /  8.2 °C 31.0 °F /  -0.6 °C 29.76 in /  1007.7 hPa WSW 5.1 mph /  8.2 km/h 10.4 mph /  16.7 km/h 54 % 0.00 in /  0 mm
10:23 46.8 °F /  8.2 °C 30.1 °F /  -1.1 °C 29.76 in /  1007.7 hPa WSW 9.8 mph /  15.8 km/h 17.0 mph /  27.4 km/h 52 % 0.00 in /  0 mm
10:28 46.7 °F /  8.2 °C 30.0 °F /  -1.1 °C 29.76 in /  1007.7 hPa WSW 6.5 mph /  10.5 km/h 11.5 mph /  18.5 km/h 52 % 0.00 in /  0 mm
10:33 46.9 °F /  8.3 °C 29.7 °F /  -1.3 °C 29.75 in /  1007.3 hPa NW 10.2 mph /  16.4 km/h 19.6 mph /  31.5 km/h 51 % 0.00 in /  0 mm
10:34 46.9 °F /  8.3 °C 29.7 °F /  -1.3 °C 29.76 in /  1007.7 hPa WNW 7.7 mph /  12.4 km/h 19.6 mph /  31.5 km/h 51 % 0.00 in /  0 mm
10:40 46.9 °F /  8.3 °C 29.7 °F /  -1.3 °C 29.76 in /  1007.7 hPa WNW 5.3 mph /  8.5 km/h 11.5 mph /  18.5 km/h 51 % 0.00 in /  0 mm
10:45 47.0 °F /  8.3 °C 30.3 °F /  -0.9 °C 29.76 in /  1007.7 hPa WNW 8.6 mph /  13.8 km/h 11.5 mph /  18.5 km/h 52 % 0.00 in /  0 mm
10:50 47.2 °F /  8.4 °C 29.5 °F /  -1.4 °C 29.76 in /  1007.7 hPa WSW 6.5 mph /  10.5 km/h 13.8 mph /  22.2 km/h 50 % 0.00 in /  0 mm
10:55 47.4 °F /  8.6 °C 30.2 °F /  -1 °C 29.76 in /  1007.7 hPa West 8.7 mph /  14 km/h 12.7 mph /  20.4 km/h 51 % 0.00 in /  0 mm
11:00 47.8 °F /  8.8 °C 30.5 °F /  -0.8 °C 29.76 in /  1007.7 hPa NW 7.2 mph /  11.6 km/h 16.1 mph /  25.9 km/h 51 % 0.00 in /  0 mm
11:05 47.9 °F /  8.8 °C 30.6 °F /  -0.8 °C 29.76 in /  1007.7 hPa WNW 10.2 mph /  16.4 km/h 17.3 mph /  27.8 km/h 51 % 0.00 in /  0 mm
11:10 48.0 °F /  8.9 °C 30.7 °F /  -0.7 °C 29.76 in /  1007.7 hPa NNW 5.9 mph /  9.5 km/h 11.5 mph /  18.5 km/h 51 % 0.00 in /  0 mm
11:15 48.3 °F /  9.1 °C 31.0 °F /  -0.6 °C 29.76 in /  1007.7 hPa NW 4.8 mph /  7.7 km/h 9.0 mph /  14.5 km/h 51 % 0.00 in /  0 mm
11:20 49.1 °F /  9.5 °C 31.7 °F /  -0.2 °C 29.76 in /  1007.7 hPa NW 5.4 mph /  8.7 km/h 9.0 mph /  14.5 km/h 51 % 0.00 in /  0 mm
11:25 49.5 °F /  9.7 °C 32.1 °F /  0.1 °C 29.76 in /  1007.7 hPa West 6.5 mph /  10.5 km/h 15.0 mph /  24.1 km/h 51 % 0.00 in /  0 mm
11:30 49.6 °F /  9.8 °C 32.2 °F /  0.1 °C 29.76 in /  1007.7 hPa West 5.7 mph /  9.2 km/h 11.5 mph /  18.5 km/h 51 % 0.00 in /  0 mm
11:32 49.7 °F /  9.8 °C 31.8 °F /  -0.1 °C 29.76 in /  1007.7 hPa WNW 8.2 mph /  13.2 km/h 13.8 mph /  22.2 km/h 50 % 0.00 in /  0 mm
11:37 49.9 °F /  9.9 °C 31.5 °F /  -0.3 °C 29.76 in /  1007.7 hPa NW 8.3 mph /  13.4 km/h 13.8 mph /  22.2 km/h 49 % 0.00 in /  0 mm
11:43 50.1 °F /  10.1 °C 31.2 °F /  -0.4 °C 29.76 in /  1007.7 hPa NW 8.0 mph /  12.9 km/h 15.0 mph /  24.1 km/h 48 % 0.00 in /  0 mm
11:48 50.3 °F /  10.2 °C 31.3 °F /  -0.4 °C 29.76 in /  1007.7 hPa WNW 7.3 mph /  11.7 km/h 13.0 mph /  20.9 km/h 48 % 0.00 in /  0 mm
11:53 50.5 °F /  10.3 °C 30.5 °F /  -0.8 °C 29.76 in /  1007.7 hPa NW 6.2 mph /  10 km/h 9.2 mph /  14.8 km/h 46 % 0.00 in /  0 mm
11:58 50.7 °F /  10.4 °C 31.7 °F /  -0.2 °C 29.76 in /  1007.7 hPa NW 9.8 mph /  15.8 km/h 15.0 mph /  24.1 km/h 48 % 0.00 in /  0 mm
12:03 51.0 °F /  10.6 °C 30.9 °F /  -0.6 °C 29.76 in /  1007.7 hPa WNW 6.2 mph /  10 km/h 10.4 mph /  16.7 km/h 46 % 0.00 in /  0 mm
12:08 50.9 °F /  10.5 °C 30.8 °F /  -0.7 °C 29.76 in /  1007.7 hPa WSW 7.8 mph /  12.6 km/h 11.5 mph /  18.5 km/h 46 % 0.00 in /  0 mm
12:13 51.3 °F /  10.7 °C 31.2 °F /  -0.4 °C 29.77 in /  1008 hPa WSW 6.8 mph /  10.9 km/h 11.5 mph /  18.5 km/h 46 % 0.00 in /  0 mm
12:14 51.3 °F /  10.7 °C 31.7 °F /  -0.2 °C 29.77 in /  1008 hPa NW 6.0 mph /  9.7 km/h 10.4 mph /  16.7 km/h 47 % 0.00 in /  0 mm
12:19 51.3 °F /  10.7 °C 31.7 °F /  -0.2 °C 29.77 in /  1008 hPa NW 7.0 mph /  11.3 km/h 12.7 mph /  20.4 km/h 47 % 0.00 in /  0 mm
12:24 51.1 °F /  10.6 °C 31.0 °F /  -0.6 °C 29.77 in /  1008 hPa WNW 6.9 mph /  11.1 km/h 10.4 mph /  16.7 km/h 46 % 0.00 in /  0 mm
12:29 51.1 °F /  10.6 °C 33.1 °F /  0.6 °C 29.76 in /  1007.7 hPa WSW 5.7 mph /  9.2 km/h 9.2 mph /  14.8 km/h 50 % 0.00 in /  0 mm
12:34 51.5 °F /  10.8 °C 32.4 °F /  0.2 °C 29.76 in /  1007.7 hPa West 6.7 mph /  10.8 km/h 11.0 mph /  17.7 km/h 48 % 0.00 in /  0 mm
12:36 51.7 °F /  10.9 °C 32.1 °F /  0.1 °C 29.76 in /  1007.7 hPa NW 6.0 mph /  9.7 km/h 9.0 mph /  14.5 km/h 47 % 0.00 in /  0 mm
12:41 51.9 °F /  11.1 °C 31.2 °F /  -0.4 °C 29.76 in /  1007.7 hPa NNW 5.1 mph /  8.2 km/h 10.4 mph /  16.7 km/h 45 % 0.00 in /  0 mm
12:46 52.2 °F /  11.2 °C 30.9 °F /  -0.6 °C 29.76 in /  1007.7 hPa WSW 7.8 mph /  12.6 km/h 12.7 mph /  20.4 km/h 44 % 0.00 in /  0 mm
12:51 52.2 °F /  11.2 °C 30.9 °F /  -0.6 °C 29.76 in /  1007.7 hPa WSW 5.4 mph /  8.7 km/h 11.5 mph /  18.5 km/h 44 % 0.00 in /  0 mm
12:56 52.2 °F /  11.2 °C 31.5 °F /  -0.3 °C 29.76 in /  1007.7 hPa West 5.8 mph /  9.3 km/h 13.8 mph /  22.2 km/h 45 % 0.00 in /  0 mm
13:01 52.5 °F /  11.4 °C 31.2 °F /  -0.4 °C 29.76 in /  1007.7 hPa WNW 9.4 mph /  15.1 km/h 18.4 mph /  29.6 km/h 44 % 0.00 in /  0 mm
13:07 52.8 °F /  11.6 °C 32.6 °F /  0.3 °C 29.76 in /  1007.7 hPa WSW 4.3 mph /  6.9 km/h 19.6 mph /  31.5 km/h 46 % 0.00 in /  0 mm
13:12 53.1 °F /  11.7 °C 31.7 °F /  -0.2 °C 29.76 in /  1007.7 hPa NW 9.0 mph /  14.5 km/h 16.1 mph /  25.9 km/h 44 % 0.00 in /  0 mm
13:17 52.9 °F /  11.6 °C 31.0 °F /  -0.6 °C 29.76 in /  1007.7 hPa NNW 10.3 mph /  16.6 km/h 17.3 mph /  27.8 km/h 43 % 0.00 in /  0 mm
13:22 52.7 °F /  11.5 °C 31.4 °F /  -0.3 °C 29.76 in /  1007.7 hPa West 6.4 mph /  10.3 km/h 17.3 mph /  27.8 km/h 44 % 0.00 in /  0 mm
13:27 52.9 °F /  11.6 °C 32.7 °F /  0.4 °C 29.76 in /  1007.7 hPa West 3.0 mph /  4.8 km/h 8.0 mph /  12.9 km/h 46 % 0.00 in /  0 mm
13:32 53.1 °F /  11.7 °C 30.0 °F /  -1.1 °C 29.76 in /  1007.7 hPa NW 8.6 mph /  13.8 km/h 15.0 mph /  24.1 km/h 41 % 0.00 in /  0 mm
13:37 53.1 °F /  11.7 °C 31.2 °F /  -0.4 °C 29.76 in /  1007.7 hPa WSW 5.8 mph /  9.3 km/h 11.5 mph /  18.5 km/h 43 % 0.00 in /  0 mm
13:42 53.3 °F /  11.8 °C 31.4 °F /  -0.3 °C 29.76 in /  1007.7 hPa WNW 7.4 mph /  11.9 km/h 15.0 mph /  24.1 km/h 43 % 0.00 in /  0 mm
13:47 53.6 °F /  12 °C 31.6 °F /  -0.2 °C 29.76 in /  1007.7 hPa NW 4.1 mph /  6.6 km/h 10.4 mph /  16.7 km/h 43 % 0.00 in /  0 mm
13:52 53.7 °F /  12.1 °C 31.1 °F /  -0.5 °C 29.76 in /  1007.7 hPa North 6.7 mph /  10.8 km/h 10.4 mph /  16.7 km/h 42 % 0.00 in /  0 mm
13:57 54.0 °F /  12.2 °C 32.0 °F /  0 °C 29.76 in /  1007.7 hPa West 4.3 mph /  6.9 km/h 11.5 mph /  18.5 km/h 43 % 0.00 in /  0 mm
14:02 54.2 °F /  12.3 °C 32.2 °F /  0.1 °C 29.76 in /  1007.7 hPa WNW 4.6 mph /  7.4 km/h 8.1 mph /  13 km/h 43 % 0.00 in /  0 mm
14:07 54.4 °F /  12.4 °C 31.2 °F /  -0.4 °C 29.76 in /  1007.7 hPa NW 11.0 mph /  17.7 km/h 14.0 mph /  22.5 km/h 41 % 0.00 in /  0 mm
14:12 54.3 °F /  12.4 °C 31.1 °F /  -0.5 °C 29.76 in /  1007.7 hPa West 9.8 mph /  15.8 km/h 14.0 mph /  22.5 km/h 41 % 0.00 in /  0 mm
14:17 54.3 °F /  12.4 °C 31.1 °F /  -0.5 °C 29.76 in /  1007.7 hPa WNW 8.3 mph /  13.4 km/h 17.3 mph /  27.8 km/h 41 % 0.00 in /  0 mm
14:19 54.4 °F /  12.4 °C 31.2 °F /  -0.4 °C 29.76 in /  1007.7 hPa NW 9.1 mph /  14.6 km/h 18.0 mph /  29 km/h 41 % 0.00 in /  0 mm
14:24 54.5 °F /  12.5 °C 31.3 °F /  -0.4 °C 29.76 in /  1007.7 hPa North 6.0 mph /  9.7 km/h 10.0 mph /  16.1 km/h 41 % 0.00 in /  0 mm
14:29 54.6 °F /  12.6 °C 31.3 °F /  -0.4 °C 29.76 in /  1007.7 hPa NNW 4.0 mph /  6.4 km/h 12.7 mph /  20.4 km/h 41 % 0.00 in /  0 mm
14:34 54.6 °F /  12.6 °C 30.1 °F /  -1.1 °C 29.76 in /  1007.7 hPa WSW 8.0 mph /  12.9 km/h 14.0 mph /  22.5 km/h 39 % 0.00 in /  0 mm
14:39 54.6 °F /  12.6 °C 31.3 °F /  -0.4 °C 29.76 in /  1007.7 hPa West 7.4 mph /  11.9 km/h 14.0 mph /  22.5 km/h 41 % 0.00 in /  0 mm
14:44 54.6 °F /  12.6 °C 31.3 °F /  -0.4 °C 29.76 in /  1007.7 hPa WNW 8.7 mph /  14 km/h 16.1 mph /  25.9 km/h 41 % 0.00 in /  0 mm
14:49 54.6 °F /  12.6 °C 33.1 °F /  0.6 °C 29.76 in /  1007.7 hPa WNW 6.6 mph /  10.6 km/h 16.0 mph /  25.7 km/h 44 % 0.00 in /  0 mm
14:54 54.8 °F /  12.7 °C 32.1 °F /  0.1 °C 29.76 in /  1007.7 hPa WNW 8.6 mph /  13.8 km/h 18.4 mph /  29.6 km/h 42 % 0.00 in /  0 mm
14:59 55.0 °F /  12.8 °C 30.5 °F /  -0.8 °C 29.76 in /  1007.7 hPa NW 8.0 mph /  12.9 km/h 17.3 mph /  27.8 km/h 39 % 0.00 in /  0 mm
15:04 55.1 °F /  12.8 °C 31.8 °F /  -0.1 °C 29.76 in /  1007.7 hPa NW 5.3 mph /  8.5 km/h 11.5 mph /  18.5 km/h 41 % 0.00 in /  0 mm
15:09 55.3 °F /  12.9 °C 33.2 °F /  0.7 °C 29.76 in /  1007.7 hPa WNW 8.8 mph /  14.2 km/h 11.5 mph /  18.5 km/h 43 % 0.00 in /  0 mm
15:14 55.5 °F /  13.1 °C 31.5 °F /  -0.3 °C 29.76 in /  1007.7 hPa WNW 9.3 mph /  15 km/h 15.0 mph /  24.1 km/h 40 % 0.00 in /  0 mm
15:19 55.6 °F /  13.1 °C 32.2 °F /  0.1 °C 29.76 in /  1007.7 hPa WSW 5.8 mph /  9.3 km/h 10.4 mph /  16.7 km/h 41 % 0.00 in /  0 mm
15:21 55.7 °F /  13.2 °C 31.7 °F /  -0.2 °C 29.76 in /  1007.7 hPa WNW 10.0 mph /  16.1 km/h 15.0 mph /  24.1 km/h 40 % 0.00 in /  0 mm
15:26 55.6 °F /  13.1 °C 31.6 °F /  -0.2 °C 29.76 in /  1007.7 hPa North 4.6 mph /  7.4 km/h 11.5 mph /  18.5 km/h 40 % 0.00 in /  0 mm
15:31 55.7 °F /  13.2 °C 31.7 °F /  -0.2 °C 29.76 in /  1007.7 hPa WNW 6.2 mph /  10 km/h 12.7 mph /  20.4 km/h 40 % 0.00 in /  0 mm
15:36 55.8 °F /  13.2 °C 31.8 °F /  -0.1 °C 29.76 in /  1007.7 hPa WNW 6.4 mph /  10.3 km/h 13.8 mph /  22.2 km/h 40 % 0.00 in /  0 mm
15:41 55.7 °F /  13.2 °C 31.1 °F /  -0.5 °C 29.76 in /  1007.7 hPa WSW 6.2 mph /  10 km/h 13.8 mph /  22.2 km/h 39 % 0.00 in /  0 mm
15:46 55.7 °F /  13.2 °C 32.3 °F /  0.2 °C 29.76 in /  1007.7 hPa WNW 7.0 mph /  11.3 km/h 12.0 mph /  19.3 km/h 41 % 0.00 in /  0 mm
15:51 55.9 °F /  13.3 °C 30.6 °F /  -0.8 °C 29.76 in /  1007.7 hPa NNW 9.3 mph /  15 km/h 13.0 mph /  20.9 km/h 38 % 0.00 in /  0 mm
15:56 55.8 °F /  13.2 °C 30.5 °F /  -0.8 °C 29.76 in /  1007.7 hPa West 5.5 mph /  8.9 km/h 16.1 mph /  25.9 km/h 38 % 0.00 in /  0 mm
16:01 55.9 °F /  13.3 °C 30.6 °F /  -0.8 °C 29.76 in /  1007.7 hPa NW 4.2 mph /  6.8 km/h 11.5 mph /  18.5 km/h 38 % 0.00 in /  0 mm
16:06 55.9 °F /  13.3 °C 30.6 °F /  -0.8 °C 29.76 in /  1007.7 hPa NNW 8.7 mph /  14 km/h 11.5 mph /  18.5 km/h 38 % 0.00 in /  0 mm
16:11 56.0 °F /  13.3 °C 32.0 °F /  0 °C 29.76 in /  1007.7 hPa NNW 4.1 mph /  6.6 km/h 11.5 mph /  18.5 km/h 40 % 0.00 in /  0 mm
16:16 55.9 °F /  13.3 °C 31.3 °F /  -0.4 °C 29.76 in /  1007.7 hPa WNW 4.1 mph /  6.6 km/h 8.0 mph /  12.9 km/h 39 % 0.00 in /  0 mm
16:21 56.0 °F /  13.3 °C 29.4 °F /  -1.4 °C 29.76 in /  1007.7 hPa WNW 8.2 mph /  13.2 km/h 12.7 mph /  20.4 km/h 36 % 0.00 in /  0 mm
16:26 55.9 °F /  13.3 °C 30.6 °F /  -0.8 °C 29.76 in /  1007.7 hPa West 2.9 mph /  4.7 km/h 12.7 mph /  20.4 km/h 38 % 0.00 in /  0 mm
16:31 56.0 °F /  13.3 °C 30.7 °F /  -0.7 °C 29.76 in /  1007.7 hPa WNW 7.4 mph /  11.9 km/h 9.2 mph /  14.8 km/h 38 % 0.00 in /  0 mm
16:34 56.1 °F /  13.4 °C 30.2 °F /  -1 °C 29.76 in /  1007.7 hPa NW 7.1 mph /  11.4 km/h 11.5 mph /  18.5 km/h 37 % 0.00 in /  0 mm
16:39 56.3 °F /  13.5 °C 31.6 °F /  -0.2 °C 29.77 in /  1008 hPa WNW 5.1 mph /  8.2 km/h 12.7 mph /  20.4 km/h 39 % 0.00 in /  0 mm
16:44 56.3 °F /  13.5 °C 31.0 °F /  -0.6 °C 29.77 in /  1008 hPa WNW 4.8 mph /  7.7 km/h 11.5 mph /  18.5 km/h 38 % 0.00 in /  0 mm
16:49 56.3 °F /  13.5 °C 31.0 °F /  -0.6 °C 29.77 in /  1008 hPa WNW 4.8 mph /  7.7 km/h 8.0 mph /  12.9 km/h 38 % 0.00 in /  0 mm
16:54 56.2 °F /  13.4 °C 30.9 °F /  -0.6 °C 29.77 in /  1008 hPa NW 3.2 mph /  5.1 km/h 10.4 mph /  16.7 km/h 38 % 0.00 in /  0 mm
16:59 56.0 °F /  13.3 °C 31.4 °F /  -0.3 °C 29.77 in /  1008 hPa WNW 5.6 mph /  9 km/h 9.2 mph /  14.8 km/h 39 % 0.00 in /  0 mm
17:04 56.0 °F /  13.3 °C 30.7 °F /  -0.7 °C 29.77 in /  1008 hPa NW 7.8 mph /  12.6 km/h 16.1 mph /  25.9 km/h 38 % 0.00 in /  0 mm
17:09 55.9 °F /  13.3 °C 30.6 °F /  -0.8 °C 29.77 in /  1008 hPa West 8.1 mph /  13 km/h 12.7 mph /  20.4 km/h 38 % 0.00 in /  0 mm
17:14 55.8 °F /  13.2 °C 30.5 °F /  -0.8 °C 29.78 in /  1008.4 hPa WNW 9.2 mph /  14.8 km/h 15.0 mph /  24.1 km/h 38 % 0.00 in /  0 mm
17:19 55.8 °F /  13.2 °C 31.8 °F /  -0.1 °C 29.77 in /  1008 hPa NNW 5.9 mph /  9.5 km/h 11.5 mph /  18.5 km/h 40 % 0.00 in /  0 mm
17:24 55.6 °F /  13.1 °C 31.6 °F /  -0.2 °C 29.78 in /  1008.4 hPa NNW 7.3 mph /  11.7 km/h 15.0 mph /  24.1 km/h 40 % 0.00 in /  0 mm
17:29 55.5 °F /  13.1 °C 29.6 °F /  -1.3 °C 29.78 in /  1008.4 hPa West 4.4 mph /  7.1 km/h 15.0 mph /  24.1 km/h 37 % 0.00 in /  0 mm
17:34 55.3 °F /  12.9 °C 29.4 °F /  -1.4 °C 29.78 in /  1008.4 hPa WNW 5.6 mph /  9 km/h 12.7 mph /  20.4 km/h 37 % 0.00 in /  0 mm
17:39 55.1 °F /  12.8 °C 29.3 °F /  -1.5 °C 29.78 in /  1008.4 hPa West 6.7 mph /  10.8 km/h 9.2 mph /  14.8 km/h 37 % 0.00 in /  0 mm
17:44 54.9 °F /  12.7 °C 30.4 °F /  -0.9 °C 29.78 in /  1008.4 hPa North 3.4 mph /  5.5 km/h 12.7 mph /  20.4 km/h 39 % 0.00 in /  0 mm
17:49 54.8 °F /  12.7 °C 31.5 °F /  -0.3 °C 29.78 in /  1008.4 hPa NW 6.1 mph /  9.8 km/h 11.5 mph /  18.5 km/h 41 % 0.00 in /  0 mm
17:52 54.7 °F /  12.6 °C 32.0 °F /  0 °C 29.79 in /  1008.7 hPa NW 5.0 mph /  8 km/h 12.0 mph /  19.3 km/h 42 % 0.00 in /  0 mm
17:57 54.4 °F /  12.4 °C 29.9 °F /  -1.2 °C 29.79 in /  1008.7 hPa SW 4.9 mph /  7.9 km/h 18.4 mph /  29.6 km/h 39 % 0.00 in /  0 mm
18:02 53.9 °F /  12.2 °C 30.1 °F /  -1.1 °C 29.79 in /  1008.7 hPa NW 7.3 mph /  11.7 km/h 11.5 mph /  18.5 km/h 40 % 0.00 in /  0 mm
18:07 53.6 °F /  12 °C 29.8 °F /  -1.2 °C 29.79 in /  1008.7 hPa NNW 7.6 mph /  12.2 km/h 13.8 mph /  22.2 km/h 40 % 0.00 in /  0 mm
18:12 53.3 °F /  11.8 °C 29.6 °F /  -1.3 °C 29.79 in /  1008.7 hPa WNW 3.3 mph /  5.3 km/h 12.7 mph /  20.4 km/h 40 % 0.00 in /  0 mm
18:17 53.1 °F /  11.7 °C 30.6 °F /  -0.8 °C 29.79 in /  1008.7 hPa NW 7.0 mph /  11.3 km/h 11.5 mph /  18.5 km/h 42 % 0.00 in /  0 mm
18:22 52.9 °F /  11.6 °C 30.4 °F /  -0.9 °C 29.79 in /  1008.7 hPa WNW 6.8 mph /  10.9 km/h 18.4 mph /  29.6 km/h 42 % 0.00 in /  0 mm
18:27 52.7 °F /  11.5 °C 29.6 °F /  -1.3 °C 29.80 in /  1009 hPa NNW 4.6 mph /  7.4 km/h 9.2 mph /  14.8 km/h 41 % 0.00 in /  0 mm
18:32 52.6 °F /  11.4 °C 30.7 °F /  -0.7 °C 29.80 in /  1009 hPa NW 5.1 mph /  8.2 km/h 8.1 mph /  13 km/h 43 % 0.00 in /  0 mm
18:37 52.4 °F /  11.3 °C 31.1 °F /  -0.5 °C 29.80 in /  1009 hPa WNW 4.4 mph /  7.1 km/h 11.5 mph /  18.5 km/h 44 % 0.00 in /  0 mm
18:42 52.2 °F /  11.2 °C 31.5 °F /  -0.3 °C 29.81 in /  1009.4 hPa WNW 3.0 mph /  4.8 km/h 7.0 mph /  11.3 km/h 45 % 0.00 in /  0 mm
18:47 52.0 °F /  11.1 °C 30.2 °F /  -1 °C 29.81 in /  1009.4 hPa NW 7.6 mph /  12.2 km/h 11.5 mph /  18.5 km/h 43 % 0.00 in /  0 mm
18:52 51.8 °F /  11 °C 30.6 °F /  -0.8 °C 29.81 in /  1009.4 hPa WNW 4.9 mph /  7.9 km/h 9.2 mph /  14.8 km/h 44 % 0.00 in /  0 mm
18:57 51.6 °F /  10.9 °C 31.5 °F /  -0.3 °C 29.81 in /  1009.4 hPa WNW 5.4 mph /  8.7 km/h 9.2 mph /  14.8 km/h 46 % 0.00 in /  0 mm
19:02 51.4 °F /  10.8 °C 30.7 °F /  -0.7 °C 29.81 in /  1009.4 hPa WNW 5.4 mph /  8.7 km/h 10.4 mph /  16.7 km/h 45 % 0.00 in /  0 mm
19:08 51.3 °F /  10.7 °C 30.1 °F /  -1.1 °C 29.82 in /  1009.7 hPa NW 6.0 mph /  9.7 km/h 13.0 mph /  20.9 km/h 44 % 0.00 in /  0 mm
19:13 51.2 °F /  10.7 °C 30.0 °F /  -1.1 °C 29.82 in /  1009.7 hPa WNW 4.7 mph /  7.6 km/h 10.4 mph /  16.7 km/h 44 % 0.00 in /  0 mm
19:18 51.2 °F /  10.7 °C 30.6 °F /  -0.8 °C 29.82 in /  1009.7 hPa West 3.7 mph /  6 km/h 9.2 mph /  14.8 km/h 45 % 0.00 in /  0 mm
19:23 51.1 °F /  10.6 °C 30.5 °F /  -0.8 °C 29.83 in /  1010 hPa WNW 4.0 mph /  6.4 km/h 6.9 mph /  11.1 km/h 45 % 0.00 in /  0 mm
19:28 51.0 °F /  10.6 °C 30.9 °F /  -0.6 °C 29.83 in /  1010 hPa West 3.0 mph /  4.8 km/h 6.9 mph /  11.1 km/h 46 % 0.00 in /  0 mm
19:33 50.8 °F /  10.4 °C 31.3 °F /  -0.4 °C 29.83 in /  1010 hPa West 4.5 mph /  7.2 km/h 9.2 mph /  14.8 km/h 47 % 0.00 in /  0 mm
19:38 50.6 °F /  10.3 °C 31.6 °F /  -0.2 °C 29.84 in /  1010.4 hPa WNW 1.1 mph /  1.8 km/h 3.5 mph /  5.6 km/h 48 % 0.00 in /  0 mm
19:43 50.4 °F /  10.2 °C 30.9 °F /  -0.6 °C 29.84 in /  1010.4 hPa West 3.5 mph /  5.6 km/h 5.8 mph /  9.3 km/h 47 % 0.00 in /  0 mm
19:48 50.2 °F /  10.1 °C 30.7 °F /  -0.7 °C 29.85 in /  1010.7 hPa WNW 3.7 mph /  6 km/h 9.2 mph /  14.8 km/h 47 % 0.00 in /  0 mm
19:53 50.1 °F /  10.1 °C 30.6 °F /  -0.8 °C 29.85 in /  1010.7 hPa WNW 3.9 mph /  6.3 km/h 9.2 mph /  14.8 km/h 47 % 0.00 in /  0 mm
19:58 50.0 °F /  10 °C 30.5 °F /  -0.8 °C 29.85 in /  1010.7 hPa West 1.9 mph /  3.1 km/h 9.2 mph /  14.8 km/h 47 % 0.00 in /  0 mm
20:03 49.9 °F /  9.9 °C 30.5 °F /  -0.8 °C 29.85 in /  1010.7 hPa WNW 4.4 mph /  7.1 km/h 8.1 mph /  13 km/h 47 % 0.00 in /  0 mm
20:08 49.8 °F /  9.9 °C 31.4 °F /  -0.3 °C 29.86 in /  1011.1 hPa NW 3.7 mph /  6 km/h 8.1 mph /  13 km/h 49 % 0.00 in /  0 mm
20:13 49.6 °F /  9.8 °C 31.2 °F /  -0.4 °C 29.86 in /  1011.1 hPa NW 1.9 mph /  3.1 km/h 6.9 mph /  11.1 km/h 49 % 0.00 in /  0 mm
20:18 49.5 °F /  9.7 °C 31.1 °F /  -0.5 °C 29.87 in /  1011.4 hPa WNW 3.8 mph /  6.1 km/h 10.4 mph /  16.7 km/h 49 % 0.00 in /  0 mm
20:23 49.4 °F /  9.7 °C 31.0 °F /  -0.6 °C 29.87 in /  1011.4 hPa WNW 6.1 mph /  9.8 km/h 11.5 mph /  18.5 km/h 49 % 0.00 in /  0 mm
20:28 49.3 °F /  9.6 °C 30.9 °F /  -0.6 °C 29.88 in /  1011.7 hPa NW 0.9 mph /  1.4 km/h 4.0 mph /  6.4 km/h 49 % 0.00 in /  0 mm
20:33 49.3 °F /  9.6 °C 31.4 °F /  -0.3 °C 29.88 in /  1011.7 hPa WNW 3.7 mph /  6 km/h 6.9 mph /  11.1 km/h 50 % 0.00 in /  0 mm
20:38 49.1 °F /  9.5 °C 31.2 °F /  -0.4 °C 29.88 in /  1011.7 hPa WNW 4.3 mph /  6.9 km/h 7.0 mph /  11.3 km/h 50 % 0.00 in /  0 mm
20:43 48.9 °F /  9.4 °C 31.1 °F /  -0.5 °C 29.88 in /  1011.7 hPa NW 3.2 mph /  5.1 km/h 6.0 mph /  9.7 km/h 50 % 0.00 in /  0 mm
20:48 48.8 °F /  9.3 °C 30.0 °F /  -1.1 °C 29.89 in /  1012.1 hPa West 3.7 mph /  6 km/h 8.1 mph /  13 km/h 48 % 0.00 in /  0 mm
20:53 48.8 °F /  9.3 °C 30.0 °F /  -1.1 °C 29.89 in /  1012.1 hPa WNW 1.4 mph /  2.3 km/h 5.8 mph /  9.3 km/h 48 % 0.00 in /  0 mm
20:58 48.7 °F /  9.3 °C 29.4 °F /  -1.4 °C 29.90 in /  1012.4 hPa WNW 4.2 mph /  6.8 km/h 8.1 mph /  13 km/h 47 % 0.00 in /  0 mm
21:04 48.7 °F /  9.3 °C 28.8 °F /  -1.8 °C 29.90 in /  1012.4 hPa NW 5.7 mph /  9.2 km/h 11.5 mph /  18.5 km/h 46 % 0.00 in /  0 mm
21:09 48.8 °F /  9.3 °C 28.9 °F /  -1.7 °C 29.90 in /  1012.4 hPa NNW 3.5 mph /  5.6 km/h 5.8 mph /  9.3 km/h 46 % 0.00 in /  0 mm
21:14 48.8 °F /  9.3 °C 28.9 °F /  -1.7 °C 29.90 in /  1012.4 hPa WSW 4.1 mph /  6.6 km/h 11.5 mph /  18.5 km/h 46 % 0.00 in /  0 mm
21:19 48.8 °F /  9.3 °C 28.9 °F /  -1.7 °C 29.91 in /  1012.8 hPa WNW 2.8 mph /  4.5 km/h 5.8 mph /  9.3 km/h 46 % 0.00 in /  0 mm
21:24 48.8 °F /  9.3 °C 28.4 °F /  -2 °C 29.91 in /  1012.8 hPa WNW 5.0 mph /  8 km/h 10.4 mph /  16.7 km/h 45 % 0.00 in /  0 mm
21:29 48.7 °F /  9.3 °C 28.8 °F /  -1.8 °C 29.91 in /  1012.8 hPa WNW 6.1 mph /  9.8 km/h 11.5 mph /  18.5 km/h 46 % 0.00 in /  0 mm
21:34 48.7 °F /  9.3 °C 28.8 °F /  -1.8 °C 29.91 in /  1012.8 hPa WNW 4.9 mph /  7.9 km/h 10.4 mph /  16.7 km/h 46 % 0.00 in /  0 mm
21:39 48.7 °F /  9.3 °C 28.8 °F /  -1.8 °C 29.91 in /  1012.8 hPa West 5.6 mph /  9 km/h 10.4 mph /  16.7 km/h 46 % 0.00 in /  0 mm
21:44 48.7 °F /  9.3 °C 28.8 °F /  -1.8 °C 29.92 in /  1013.1 hPa WNW 5.4 mph /  8.7 km/h 10.4 mph /  16.7 km/h 46 % 0.00 in /  0 mm
21:49 48.6 °F /  9.2 °C 29.3 °F /  -1.5 °C 29.92 in /  1013.1 hPa WNW 6.0 mph /  9.7 km/h 10.0 mph /  16.1 km/h 47 % 0.00 in /  0 mm
21:54 48.5 °F /  9.2 °C 29.2 °F /  -1.6 °C 29.92 in /  1013.1 hPa NW 6.3 mph /  10.1 km/h 9.2 mph /  14.8 km/h 47 % 0.00 in /  0 mm
21:59 48.4 °F /  9.1 °C 29.1 °F /  -1.6 °C 29.92 in /  1013.1 hPa NNW 3.8 mph /  6.1 km/h 8.1 mph /  13 km/h 47 % 0.00 in /  0 mm
22:04 48.3 °F /  9.1 °C 28.5 °F /  -1.9 °C 29.92 in /  1013.1 hPa WNW 3.2 mph /  5.1 km/h 8.1 mph /  13 km/h 46 % 0.00 in /  0 mm
22:09 48.2 °F /  9 °C 28.9 °F /  -1.7 °C 29.92 in /  1013.1 hPa West 3.7 mph /  6 km/h 9.2 mph /  14.8 km/h 47 % 0.00 in /  0 mm
22:14 48.2 °F /  9 °C 28.4 °F /  -2 °C 29.93 in /  1013.4 hPa West 1.9 mph /  3.1 km/h 10.4 mph /  16.7 km/h 46 % 0.00 in /  0 mm
22:19 48.1 °F /  8.9 °C 28.3 °F /  -2.1 °C 29.93 in /  1013.4 hPa WNW 6.8 mph /  10.9 km/h 11.5 mph /  18.5 km/h 46 % 0.00 in /  0 mm
22:24 48.1 °F /  8.9 °C 28.3 °F /  -2.1 °C 29.94 in /  1013.8 hPa NW 3.5 mph /  5.6 km/h 8.1 mph /  13 km/h 46 % 0.00 in /  0 mm
22:29 48.0 °F /  8.9 °C 28.7 °F /  -1.8 °C 29.94 in /  1013.8 hPa WNW 4.5 mph /  7.2 km/h 11.5 mph /  18.5 km/h 47 % 0.00 in /  0 mm
22:33 47.9 °F /  8.8 °C 28.6 °F /  -1.9 °C 29.94 in /  1013.8 hPa West 5.9 mph /  9.5 km/h 10.4 mph /  16.7 km/h 47 % 0.00 in /  0 mm
22:38 47.9 °F /  8.8 °C 29.1 °F /  -1.6 °C 29.94 in /  1013.8 hPa NW 4.0 mph /  6.4 km/h 8.1 mph /  13 km/h 48 % 0.00 in /  0 mm
22:43 47.8 °F /  8.8 °C 29.0 °F /  -1.7 °C 29.94 in /  1013.8 hPa WNW 3.6 mph /  5.8 km/h 7.0 mph /  11.3 km/h 48 % 0.00 in /  0 mm
22:48 47.6 °F /  8.7 °C 29.9 °F /  -1.2 °C 29.95 in /  1014.1 hPa WNW 4.7 mph /  7.6 km/h 9.2 mph /  14.8 km/h 50 % 0.00 in /  0 mm
22:53 47.4 °F /  8.6 °C 29.2 °F /  -1.6 °C 29.95 in /  1014.1 hPa WNW 3.0 mph /  4.8 km/h 7.0 mph /  11.3 km/h 49 % 0.00 in /  0 mm
22:58 47.3 °F /  8.5 °C 29.6 °F /  -1.3 °C 29.96 in /  1014.4 hPa NW 3.5 mph /  5.6 km/h 6.0 mph /  9.7 km/h 50 % 0.00 in /  0 mm
23:03 47.2 °F /  8.4 °C 30.0 °F /  -1.1 °C 29.96 in /  1014.4 hPa NW 3.1 mph /  5 km/h 4.6 mph /  7.4 km/h 51 % 0.00 in /  0 mm
23:08 47.0 °F /  8.3 °C 30.3 °F /  -0.9 °C 29.96 in /  1014.4 hPa NW 4.4 mph /  7.1 km/h 7.0 mph /  11.3 km/h 52 % 0.00 in /  0 mm
23:14 46.8 °F /  8.2 °C 30.6 °F /  -0.8 °C 29.96 in /  1014.4 hPa NW 1.0 mph /  1.6 km/h 4.6 mph /  7.4 km/h 53 % 0.00 in /  0 mm
23:17 46.7 °F /  8.2 °C 30.9 °F /  -0.6 °C 29.97 in /  1014.8 hPa WNW 0.4 mph /  0.6 km/h 3.5 mph /  5.6 km/h 54 % 0.00 in /  0 mm
23:22 46.5 °F /  8.1 °C 31.2 °F /  -0.4 °C 29.97 in /  1014.8 hPa NW 1.6 mph /  2.6 km/h 3.5 mph /  5.6 km/h 55 % 0.00 in /  0 mm
23:27 46.3 °F /  7.9 °C 31.0 °F /  -0.6 °C 29.97 in /  1014.8 hPa NW 0.9 mph /  1.4 km/h 3.5 mph /  5.6 km/h 55 % 0.00 in /  0 mm
23:32 46.1 °F /  7.8 °C 31.7 °F /  -0.2 °C 29.97 in /  1014.8 hPa NW 0.5 mph /  0.8 km/h 3.5 mph /  5.6 km/h 57 % 0.00 in /  0 mm
23:37 45.9 °F /  7.7 °C 31.9 °F /  -0.1 °C 29.98 in /  1015.1 hPa NW 1.9 mph /  3.1 km/h 3.5 mph /  5.6 km/h 58 % 0.00 in /  0 mm
23:42 45.6 °F /  7.6 °C 31.7 °F /  -0.2 °C 29.98 in /  1015.1 hPa WNW 1.8 mph /  2.9 km/h 5.0 mph /  8 km/h 58 % 0.00 in /  0 mm
23:47 45.4 °F /  7.4 °C 31.9 °F /  -0.1 °C 29.98 in /  1015.1 hPa NW 1.1 mph /  1.8 km/h 3.5 mph /  5.6 km/h 59 % 0.00 in /  0 mm
23:52 45.1 °F /  7.3 °C 31.6 °F /  -0.2 °C 29.98 in /  1015.1 hPa NW 2.1 mph /  3.4 km/h 7.0 mph /  11.3 km/h 59 % 0.00 in /  0 mm
23:57 45.0 °F /  7.2 °C 31.9 °F /  -0.1 °C 29.99 in /  1015.5 hPa NW 0.9 mph /  1.4 km/h 1.2 mph /  1.9 km/h 60 % 0.00 in /  0 mm
Crab Meadow Weather
Compliments of Weather Underground - 3 mb

Script developed by  Jim McMurry - jmcmurry@mwt.net Adapted for the template by  Wim van der Kuil - Leuven-Template.eu

Astronomy: Our moon is moving away from the earth at about 3cm per year.